Flight Track Log - Related Links

Times and Time Zones

All times are in EDT time to prevent confusion due to time zone crossing. See the ASQ5129 flight status page for this flight to view local times or setup timezone preferences in your user account.

Time Position Orientation Groundspeed Altitude Reporting Facility
EDT Latitude Longitude Course Direction KTS MPH feet Rate Location/Type
Fri 08:28:37 AM 33.6333 -84.4000 90° East 166 191 2,300  Level Atlanta TRACON
Fri 08:29:37 AM 33.6333 -84.3333 90° East 229 264 4,100 2,316 Climbing Atlanta TRACON
Fri 08:30:31 AM 33.6333 -84.2667 90° East 263 303 6,700 2,352 Climbing Atlanta TRACON
Fri 08:32:56 AM 33.6772 -84.0464 76° East 309 356 11,900 2,254 Climbing Atlanta Center
Fri 08:33:56 AM 33.7400 -83.9614 48° Northeast 321 369 14,400 2,200 Climbing Atlanta Center
Fri 08:34:56 AM 33.8108 -83.8714 47° Northeast 347 399 16,300 1,950 Climbing Atlanta Center
Fri 08:35:56 AM 33.8817 -83.7761 48° Northeast 371 427 18,300 2,000 Climbing Atlanta Center
Fri 08:36:56 AM 33.9522 -83.6756 50° Northeast 387 445 20,300 1,800 Climbing Atlanta Center
Fri 08:37:56 AM 34.0189 -83.5700 53° Northeast 392 451 21,900 1,650 Climbing Atlanta Center
Fri 08:38:56 AM 34.0914 -83.4569 52° Northeast 410 472 23,600 1,600 Climbing Atlanta Center
Fri 08:39:56 AM 34.1678 -83.3333 53° Northeast 420 483 25,100 1,450 Climbing Atlanta Center
Fri 08:40:56 AM 34.2444 -83.2144 52° Northeast 425 489 26,500 1,350 Climbing Atlanta Center
Fri 08:41:56 AM 34.3186 -83.0931 53° Northeast 441 507 27,800 1,350 Climbing Atlanta Center
Fri 08:42:56 AM 34.3969 -82.9664 53° Northeast 458 527 29,200 1,450 Climbing Atlanta Center
Fri 08:43:56 AM 34.4731 -82.8444 53° Northeast 458 527 30,700 900 Climbing Atlanta Center
Fri 08:44:56 AM 34.5469 -82.7197 54° Northeast 452 520 31,000 150 Climbing Atlanta Center
Fri 08:45:56 AM 34.6225 -82.5925 54° Northeast 459 528 31,000  Level Atlanta Center
Fri 08:46:56 AM 34.6964 -82.4875 49° Northeast 459 528 31,000  Level Atlanta Center
Fri 08:47:56 AM 34.7719 -82.3622 54° Northeast 459 528 31,000  Level Atlanta Center
Fri 08:48:56 AM 34.8475 -82.2342 54° Northeast 459 528 31,000 -200 Level Atlanta Center
Fri 08:49:56 AM 34.9269 -82.1108 52° Northeast 459 528 30,600 -850 Descending Atlanta Center
Fri 08:50:56 AM 35.0000 -81.9850 55° Northeast 459 528 29,300 -1,450 Descending Atlanta Center
Fri 08:51:56 AM 35.0942 -81.8836 41° Northeast 449 517 27,700 -1,700 Descending Atlanta Center
Fri 08:52:56 AM 35.2114 -81.7889 33° Northeast 458 527 25,900 -1,950 Descending Atlanta Center
Fri 08:53:56 AM 35.3164 -81.7072 32° Northeast 447 514 23,800 -1,750 Descending Atlanta Center
Fri 08:54:56 AM 35.4128 -81.6206 36° Northeast 441 507 22,400 -1,500 Descending Atlanta Center
Fri 08:55:56 AM 35.4942 -81.5186 46° Northeast 420 483 20,800 -1,350 Descending Atlanta Center
Fri 08:56:56 AM 35.5714 -81.4192 46° Northeast 405 466 19,700 -1,100 Descending Atlanta Center
Fri 08:57:56 AM 35.6486 -81.3247 45° Northeast 394 453 18,600 -850 Descending Atlanta Center
Fri 08:58:56 AM 35.7175 -81.2356 46° Northeast 394 453 18,000 -300 Descending Atlanta Center
Fri 08:59:56 AM 35.7903 -81.1383 47° Northeast 383 441 18,000 -100 Level Atlanta Center
Fri 09:00:56 AM 35.8631 -81.0433 47° Northeast 378 435 17,800 -850 Descending Atlanta Center
Fri 09:01:56 AM 35.9419 -80.9378 47° Northeast 378 435 16,300 -1,750 Descending Atlanta Center
Fri 09:02:56 AM 36.0125 -80.8453 47° Northeast 378 435 14,300 -2,050 Descending Atlanta Center
Fri 09:03:56 AM 36.0472 -80.7336 69° East 359 413 12,200 -1,650 Descending Atlanta Center
Fri 09:04:56 AM 36.0733 -80.6219 74° East 341 392 11,000 -750 Descending Atlanta Center
Fri 09:05:56 AM 36.0850 -80.5239 82° East 326 375 10,700 -800 Descending Atlanta Center
Fri 09:06:56 AM 36.0533 -80.4303 113° Southeast 303 349 9,400 -1,550 Descending Atlanta Center
Fri 09:07:56 AM 36.0236 -80.3442 113° Southeast 282 325 7,600 -1,700 Descending Atlanta Center
Fri 09:08:56 AM 35.9917 -80.2611 115° Southeast 276 318 6,000 -1,400 Descending Atlanta Center
Fri 09:09:56 AM 35.9786 -80.1769 101° East 244 281 4,800 -1,300 Descending Atlanta Center
Fri 09:10:56 AM 35.9886 -80.0969 81° East 225 259 3,400 -1,000 Descending Atlanta Center
Fri 09:11:56 AM 36.0142 -80.0417 60° Northeast 209 241 2,800 -600 Descending Atlanta Center
Fri 09:13:00 AM 36.0790 -79.9403 15° North  Level FlightAware Approximate
Fri 09:20:00 AM 36.1000 -79.9333 15° North  Level FlightAware Approximate
Fri 09:21:00 AM 36.1013 -79.9411 15° North  Level Estimated
Fri 09:22:00 AM 36.1000 -79.9333 15° North  Level FlightAware Approximate
Fri 09:23:00 AM 36.1013 -79.9411 15° North  Level Estimated

Login

Don't have an account? Register now (free) for customized features, flight alerts, and more!